Map

Track Data

SID SEASON NUMBER BASIN SUBBASIN NAME ISO_TIME NATURE LAT LON WMO_WIND WMO_PRES WMO_AGENCY TRACK_TYPE DIST2LAND LANDFALL IFLAG USA_AGENCY USA_ATCF_ID USA_LAT USA_LON USA_RECORD USA_STATUS USA_WIND USA_PRES USA_SSHS USA_R34_NE USA_R34_SE USA_R34_SW USA_R34_NW USA_R50_NE USA_R50_SE USA_R50_SW USA_R50_NW USA_R64_NE USA_R64_SE USA_R64_SW USA_R64_NW USA_POCI USA_ROCI USA_RMW USA_EYE TOKYO_LAT TOKYO_LON TOKYO_GRADE TOKYO_WIND TOKYO_PRES TOKYO_R50_DIR TOKYO_R50_LONG TOKYO_R50_SHORT TOKYO_R30_DIR TOKYO_R30_LONG TOKYO_R30_SHORT TOKYO_LAND CMA_LAT CMA_LON CMA_CAT CMA_WIND CMA_PRES HKO_LAT HKO_LON HKO_CAT HKO_WIND HKO_PRES NEWDELHI_LAT NEWDELHI_LON NEWDELHI_GRADE NEWDELHI_WIND NEWDELHI_PRES NEWDELHI_CI NEWDELHI_DP NEWDELHI_POCI REUNION_LAT REUNION_LON REUNION_TYPE REUNION_WIND REUNION_PRES REUNION_TNUM REUNION_CI REUNION_RMW REUNION_R34_NE REUNION_R34_SE REUNION_R34_SW REUNION_R34_NW REUNION_R50_NE REUNION_R50_SE REUNION_R50_SW REUNION_R50_NW REUNION_R64_NE REUNION_R64_SE REUNION_R64_SW REUNION_R64_NW BOM_LAT BOM_LON BOM_TYPE BOM_WIND BOM_PRES BOM_TNUM BOM_CI BOM_RMW BOM_R34_NE BOM_R34_SE BOM_R34_SW BOM_R34_NW BOM_R50_NE BOM_R50_SE BOM_R50_SW BOM_R50_NW BOM_R64_NE BOM_R64_SE BOM_R64_SW BOM_R64_NW BOM_ROCI BOM_POCI BOM_EYE BOM_POS_METHOD BOM_PRES_METHOD NADI_LAT NADI_LON NADI_CAT NADI_WIND NADI_PRES WELLINGTON_LAT WELLINGTON_LON WELLINGTON_WIND WELLINGTON_PRES DS824_LAT DS824_LON DS824_STAGE DS824_WIND DS824_PRES TD9636_LAT TD9636_LON TD9636_STAGE TD9636_WIND TD9636_PRES TD9635_LAT TD9635_LON TD9635_WIND TD9635_PRES TD9635_ROCI NEUMANN_LAT NEUMANN_LON NEUMANN_CLASS NEUMANN_WIND NEUMANN_PRES MLC_LAT MLC_LON MLC_CLASS MLC_WIND MLC_PRES USA_GUST BOM_GUST BOM_GUST_PER REUNION_GUST REUNION_GUST_PER USA_SEAHGT USA_SEARAD_NE USA_SEARAD_SE USA_SEARAD_SW USA_SEARAD_NW STORM_SPEED STORM_DIR
1885111S07088 1885 16 SI MM NOT_NAMED 1885-04-21 06:00:00 NR -6.90000 88.0000 main 1338 1338 _____O________ -1 -6.90000 88.0000 99 9.90000 4 232
1885111S07088 1885 16 SI MM NOT_NAMED 1885-04-21 09:00:00 NR -7.01108 87.8539 main 1353 1353 _____P________ -1 -7.01108 87.8539 99 4 232
1885111S07088 1885 16 SI MM NOT_NAMED 1885-04-21 12:00:00 NR -7.12345 87.7061 main 1378 1378 _____P________ -1 -7.12345 87.7061 99 4 232
1885111S07088 1885 16 SI MM NOT_NAMED 1885-04-21 15:00:00 NR -7.23847 87.5553 main 1393 1393 _____P________ -1 -7.23847 87.5553 99 4 232
1885111S07088 1885 16 SI MM NOT_NAMED 1885-04-21 18:00:00 NR -7.35746 87.3998 main 1423 1423 _____P________ -1 -7.35746 87.3998 99 4 232
1885111S07088 1885 16 SI MM NOT_NAMED 1885-04-21 21:00:00 NR -7.48177 87.2380 main 1448 1448 _____P________ -1 -7.48177 87.2380 99 4 232
1885111S07088 1885 16 SI MM NOT_NAMED 1885-04-22 00:00:00 NR -7.61274 87.0685 main 1463 1463 _____P________ -1 -7.61274 87.0685 99 4 232
1885111S07088 1885 16 SI MM NOT_NAMED 1885-04-22 03:00:00 NR -7.75171 86.8897 main 1493 1493 _____P________ -1 -7.75171 86.8897 99 5 232
1885111S07088 1885 16 SI MM NOT_NAMED 1885-04-22 06:00:00 NR -7.90000 86.7000 main 1518 1518 _____O________ -1 -7.90000 86.7000 99 9.90000 5 232
1885111S07088 1885 16 SI MM NOT_NAMED 1885-04-22 09:00:00 NR -8.05820 86.4988 main 1548 1548 _____P________ -1 -8.05820 86.4988 99 5 232
1885111S07088 1885 16 SI MM NOT_NAMED 1885-04-22 12:00:00 NR -8.22392 86.2894 main 1573 1573 _____P________ -1 -8.22392 86.2894 99 5 231
1885111S07088 1885 16 SI MM NOT_NAMED 1885-04-22 15:00:00 NR -8.39398 86.0760 main 1603 1603 _____P________ -1 -8.39398 86.0760 99 5 231
1885111S07088 1885 16 SI MM NOT_NAMED 1885-04-22 18:00:00 NR -8.56527 85.8630 main 1633 1633 _____P________ -1 -8.56527 85.8630 99 5 231
1885111S07088 1885 16 SI MM NOT_NAMED 1885-04-22 21:00:00 NR -8.73463 85.6545 main 1658 1658 _____P________ -1 -8.73463 85.6545 99 5 230
1885111S07088 1885 16 SI MM NOT_NAMED 1885-04-23 00:00:00 NR -8.89895 85.4550 main 1688 1688 _____P________ -1 -8.89895 85.4550 99 5 230
1885111S07088 1885 16 SI MM NOT_NAMED 1885-04-23 03:00:00 NR -9.05511 85.2687 main 1718 1718 _____P________ -1 -9.05511 85.2687 99 5 229
1885111S07088 1885 16 SI MM NOT_NAMED 1885-04-23 06:00:00 NR -9.20000 85.1000 main 1743 1743 _____O________ -1 -9.20000 85.1000 99 9.90000 4 229
1885111S07088 1885 16 SI MM NOT_NAMED 1885-04-23 09:00:00 NR -9.31732 84.9664 main 1758 1758 _____P________ -1 -9.31732 84.9664 99 3 228
1885111S07088 1885 16 SI MM NOT_NAMED 1885-04-23 12:00:00 NR -9.42344 84.8502 main 1773 1773 _____P________ -1 -9.42344 84.8502 99 3 227
1885111S07088 1885 16 SI MM NOT_NAMED 1885-04-23 15:00:00 NR -9.52150 84.7475 main 1784 1784 _____P________ -1 -9.52150 84.7475 99 3 225
1885111S07088 1885 16 SI MM NOT_NAMED 1885-04-23 18:00:00 NR -9.61461 84.6544 main 1795 1792 _____P________ -1 -9.61461 84.6544 99 3 224
1885111S07088 1885 16 SI MM NOT_NAMED 1885-04-23 21:00:00 NR -9.70590 84.5670 main 1803 1800 _____P________ -1 -9.70590 84.5670 99 3 223
1885111S07088 1885 16 SI MM NOT_NAMED 1885-04-24 00:00:00 NR -9.79849 84.4814 main 1811 1808 _____P________ -1 -9.79849 84.4814 99 3 222
1885111S07088 1885 16 SI MM NOT_NAMED 1885-04-24 03:00:00 NR -9.89549 84.3938 main 1819 1817 _____P________ -1 -9.89549 84.3938 99 3 221
1885111S07088 1885 16 SI MM NOT_NAMED 1885-04-24 06:00:00 NR -10.0000 84.3000 main 1828 1825 _____O________ -1 -10.0000 84.3000 99 9.90000 3 226
1885111S07088 1885 16 SI MM NOT_NAMED 1885-04-24 09:00:00 NR -10.0872 84.1934 main 1836 1834 _____P________ -1 -10.0872 84.1934 99 3 230
1885111S07088 1885 16 SI MM NOT_NAMED 1885-04-24 12:00:00 NR -10.1762 84.0838 main 1845 1842 _____P________ -1 -10.1762 84.0838 99 3 230
1885111S07088 1885 16 SI MM NOT_NAMED 1885-04-24 15:00:00 NR -10.2734 83.9701 main 1853 1851 _____P________ -1 -10.2734 83.9701 99 3 228
1885111S07088 1885 16 SI MM NOT_NAMED 1885-04-24 18:00:00 NR -10.3849 83.8511 main 1862 1860 _____P________ -1 -10.3849 83.8511 99 3 225
1885111S07088 1885 16 SI MM NOT_NAMED 1885-04-24 21:00:00 NR -10.5171 83.7257 main 1869 1869 _____P________ -1 -10.5171 83.7257 99 4 221
1885111S07088 1885 16 SI MM NOT_NAMED 1885-04-25 00:00:00 NR -10.6762 83.5928 main 1889 1887 _____P________ -1 -10.6762 83.5928 99 4 217
1885111S07088 1885 16 SI MM NOT_NAMED 1885-04-25 03:00:00 NR -10.8684 83.4513 main 1909 1907 _____P________ -1 -10.8684 83.4513 99 5 214
1885111S07088 1885 16 SI MM NOT_NAMED 1885-04-25 06:00:00 NR -11.1000 83.3000 main 1928 1928 _____O________ -1 -11.1000 83.3000 99 9.90000 6 211
1885111S07088 1885 16 SI MM NOT_NAMED 1885-04-25 09:00:00 NR -11.3753 83.1380 main 1958 1958 _____P________ -1 -11.3753 83.1380 99 7 209
1885111S07088 1885 16 SI MM NOT_NAMED 1885-04-25 12:00:00 NR -11.6905 82.9662 main 1989 1988 _____P________ -1 -11.6905 82.9662 99 8 207
1885111S07088 1885 16 SI MM NOT_NAMED 1885-04-25 15:00:00 NR -12.0401 82.7859 main 2020 2020 _____P________ -1 -12.0401 82.7859 99 8 206
1885111S07088 1885 16 SI MM NOT_NAMED 1885-04-25 18:00:00 NR -12.4181 82.5982 main 2062 2062 _____P________ -1 -12.4181 82.5982 99 9 206
1885111S07088 1885 16 SI MM NOT_NAMED 1885-04-25 21:00:00 NR -12.8189 82.4044 main 2104 2104 _____P________ -1 -12.8189 82.4044 99 9 205
1885111S07088 1885 16 SI MM NOT_NAMED 1885-04-26 00:00:00 NR -13.2366 82.2059 main 2147 2147 _____P________ -1 -13.2366 82.2059 99 9 205
1885111S07088 1885 16 SI MM NOT_NAMED 1885-04-26 03:00:00 NR -13.6656 82.0040 main 2201 2201 _____P________ -1 -13.6656 82.0040 99 10 204
1885111S07088 1885 16 SI MM NOT_NAMED 1885-04-26 06:00:00 NR -14.1000 81.8000 main 2244 _____O________ -1 -14.1000 81.8000 99 9.90000 10 205

About IBTrACS Database

This database is a web-friendly format of International Best Track Archive for Climate Stewardship (IBTrACS), a global best track data archive curated by NOAA dating back to 1842.

Updated: 2021-10-25